Аэропорт: Угольный. Анадырь

ICAO: UHMA

METAR:
2020-06-04 04:00:00
UHMA 040400Z 19005MPS CAVOK 13/05 Q1010 R19/60D NOSIG RMK TDZ R19/19005G07MPS END R19/18005G06MPS QFE752/1003
METAR:
2020-06-04 01:37:00
TAF UHMA 040137Z 0403/0503 19003G10MPS 9999 SCT030 TEMPO 0403/0503 27003MPS 5000 -SHRA BR SCT005 BKN020CB